Time;durP1;ratioP1;P1;durP2;ratioP2;P2;SDS_P1;SDS_P2;PMS_P1;PMS_P2;Temp;Humidity;BMP_temperature;BMP_pressure;BME280_temperature;BME280_humidity;BME280_pressure;Samples;Min_cycle;Max_cycle;Signal;HPM_P1;HPM_P2
2023/03/17 00:01:18;;;;;;;3.53;3.23;;;;;;;6.76;62.86;99149.25;6117400;23;20160;-77
2023/03/17 00:03:46;;;;;;;4.97;2.60;;;;;;;6.73;62.62;99142.44;6115413;23;20395;-76
2023/03/17 00:06:20;;;;;;;3.25;2.95;;;;;;;6.70;62.97;99137.41;6116344;23;20265;-78
2023/03/17 00:08:46;;;;;;;3.30;2.70;;;;;;;6.65;63.04;99127.22;6114618;23;20163;-77
2023/03/17 00:11:13;;;;;;;2.70;2.20;;;;;;;6.64;62.90;99135.09;6117503;23;20164;-77
2023/03/17 00:13:38;;;;;;;3.92;2.33;;;;;;;6.59;62.98;99126.72;6117256;23;20738;-77
2023/03/17 00:16:12;;;;;;;3.00;2.07;;;;;;;6.54;62.97;99119.13;6117464;23;20196;-76
2023/03/17 00:18:37;;;;;;;4.82;2.80;;;;;;;6.48;63.05;99116.88;6089550;23;20170;-77
2023/03/17 00:21:03;;;;;;;3.20;2.60;;;;;;;6.47;63.34;99116.94;6117829;23;20179;-75
2023/03/17 00:23:29;;;;;;;4.00;2.27;;;;;;;6.46;63.22;99115.28;6118097;23;20479;-76
2023/03/17 00:25:56;;;;;;;3.27;2.63;;;;;;;6.47;63.16;99122.16;6117911;23;20255;-76
2023/03/17 00:28:26;;;;;;;3.35;2.80;;;;;;;6.46;63.06;99131.75;6117906;23;20407;-77
2023/03/17 00:30:59;;;;;;;3.35;3.05;;;;;;;6.47;63.29;99127.38;6090945;23;20194;-77
2023/03/17 00:33:27;;;;;;;3.42;2.22;;;;;;;6.45;63.46;99126.59;6090802;23;20595;-77
2023/03/17 00:35:55;;;;;;;5.00;3.58;;;;;;;6.33;63.31;99125.50;6117000;23;20180;-77
2023/03/17 00:38:23;;;;;;;7.13;4.25;;;;;;;6.18;63.54;99116.72;6090729;23;20188;-76
2023/03/17 00:40:50;;;;;;;6.05;4.00;;;;;;;6.07;64.01;99124.28;6117445;23;20611;-77
2023/03/17 00:43:16;;;;;;;9.48;4.68;;;;;;;5.98;64.05;99130.84;6091042;23;20200;-75
2023/03/17 00:45:42;;;;;;;5.63;4.30;;;;;;;5.93;63.95;99133.69;6117290;23;20184;-76
2023/03/17 00:48:20;;;;;;;8.55;4.82;;;;;;;5.91;64.21;99132.91;6116195;23;20161;-76
2023/03/17 00:50:48;;;;;;;7.07;4.32;;;;;;;5.93;64.08;99122.38;6116612;23;20158;-76
2023/03/17 00:53:20;;;;;;;6.25;3.60;;;;;;;5.93;64.13;99118.03;6116617;23;20174;-76
2023/03/17 00:55:46;;;;;;;7.35;4.45;;;;;;;5.93;63.79;99118.03;6116895;23;20207;-75
2023/03/17 00:58:23;;;;;;;7.55;4.32;;;;;;;5.96;64.10;99132.66;6114493;23;20187;-76
2023/03/17 01:00:49;;;;;;;4.18;3.78;;;;;;;6.00;63.76;99138.59;6117745;23;20160;-76
2023/03/17 01:03:15;;;;;;;4.20;3.67;;;;;;;6.04;63.86;99148.75;6117199;23;20615;-77
2023/03/17 01:05:41;;;;;;;3.37;3.07;;;;;;;6.08;63.63;99142.47;6117359;23;20228;-77
2023/03/17 01:08:09;;;;;;;4.70;3.50;;;;;;;6.10;63.68;99135.41;6117181;23;20385;-76
2023/03/17 01:10:35;;;;;;;6.38;3.63;;;;;;;6.07;63.69;99124.28;6116818;23;20161;-78
2023/03/17 01:13:01;;;;;;;4.05;2.85;;;;;;;5.98;63.92;99107.38;6066821;23;20169;-76
2023/03/17 01:15:32;;;;;;;3.45;3.15;;;;;;;5.93;64.06;99120.63;6117943;23;20193;-77
2023/03/17 01:18:01;;;;;;;6.97;3.08;;;;;;;5.92;64.27;99123.31;6116763;23;20184;-76
2023/03/17 01:20:30;;;;;;;3.83;3.45;;;;;;;5.84;64.53;99128.09;6090518;23;20231;-76
2023/03/17 01:22:56;;;;;;;6.85;2.95;;;;;;;5.67;65.12;99121.13;6088660;23;20161;-76
2023/03/17 01:25:22;;;;;;;2.70;2.47;;;;;;;5.55;65.14;99113.00;6117046;23;20186;-77
2023/03/17 01:27:48;;;;;;;4.18;2.80;;;;;;;5.48;65.62;99111.66;6114986;23;20481;-77
2023/03/17 01:30:24;;;;;;;2.23;2.03;;;;;;;5.48;65.38;99121.22;6116849;23;20228;-77
2023/03/17 01:32:52;;;;;;;3.47;2.80;;;;;;;5.50;65.31;99115.00;6117905;23;20517;-77
2023/03/17 01:35:18;;;;;;;5.32;2.90;;;;;;;5.54;65.90;99115.72;6115422;23;20402;-76
2023/03/17 01:37:44;;;;;;;4.95;2.88;;;;;;;5.51;65.91;99124.53;6116824;23;20204;-77
2023/03/17 01:40:14;;;;;;;5.63;2.70;;;;;;;5.53;65.81;99114.84;6117608;23;20198;-77
2023/03/17 01:42:43;;;;;;;6.95;3.03;;;;;;;5.57;65.70;99110.34;6088985;23;21033;-74
2023/03/17 01:45:48;;;;;;;2.60;2.40;;;;;;;5.61;65.79;99111.00;6114419;23;20503;-75
2023/03/17 01:48:14;;;;;;;3.00;2.50;;;;;;;5.61;65.59;99105.81;6088690;23;20676;-76
2023/03/17 01:50:41;;;;;;;2.17;2.03;;;;;;;5.58;65.45;99105.97;6113401;23;20241;-76
2023/03/17 01:53:08;;;;;;;4.85;2.80;;;;;;;5.54;65.43;99103.53;6090723;23;20271;-76
2023/03/17 01:55:34;;;;;;;2.78;2.30;;;;;;;5.51;65.25;99102.84;6089624;23;20202;-75
2023/03/17 01:58:00;;;;;;;5.40;2.17;;;;;;;5.52;65.90;99102.75;6113718;23;20616;-75
2023/03/17 02:00:25;;;;;;;2.40;2.20;;;;;;;5.55;65.26;99101.75;6088783;23;20504;-76
2023/03/17 02:02:54;;;;;;;3.80;2.63;;;;;;;5.61;65.18;99100.59;6113969;23;20485;-77
2023/03/17 02:05:25;;;;;;;2.92;2.60;;;;;;;5.67;65.20;99100.25;6115688;23;20501;-76
2023/03/17 02:07:52;;;;;;;3.60;2.03;;;;;;;5.72;65.13;99100.88;6114039;23;20252;-77
2023/03/17 02:10:20;;;;;;;3.35;2.70;;;;;;;5.74;64.89;99101.66;6114809;23;20242;-76
2023/03/17 02:12:50;;;;;;;2.60;2.33;;;;;;;5.72;65.09;99101.72;6115571;23;20185;-76
2023/03/17 02:15:16;;;;;;;3.60;3.03;;;;;;;5.67;65.10;99095.94;6089746;23;20216;-77
2023/03/17 02:17:42;;;;;;;4.18;3.63;;;;;;;5.62;65.03;99089.28;6114709;23;20423;-77
2023/03/17 02:20:17;;;;;;;2.60;2.13;;;;;;;5.57;65.38;99086.91;6090414;23;20234;-76
2023/03/17 02:22:46;;;;;;;3.00;2.25;;;;;;;5.55;65.24;99094.78;6115364;23;20701;-76
2023/03/17 02:25:13;;;;;;;3.97;2.20;;;;;;;5.57;65.40;99094.72;6090299;23;20236;-76
2023/03/17 02:27:44;;;;;;;4.35;2.28;;;;;;;5.58;65.19;99098.16;6115856;23;20182;-77
2023/03/17 02:30:12;;;;;;;4.03;3.15;;;;;;;5.56;65.23;99095.59;6115272;23;20183;-76
2023/03/17 02:32:38;;;;;;;2.70;2.10;;;;;;;5.54;65.43;99087.88;6113901;23;20183;-76
2023/03/17 02:35:05;;;;;;;2.73;2.47;;;;;;;5.53;65.22;99083.56;6116909;23;20199;-77
2023/03/17 02:37:32;;;;;;;3.33;2.30;;;;;;;5.50;65.24;99078.53;6090392;23;20454;-75
2023/03/17 02:40:01;;;;;;;2.58;2.10;;;;;;;5.50;65.42;99078.53;6090078;23;20181;-76
2023/03/17 02:42:28;;;;;;;3.10;2.80;;;;;;;5.49;65.33;99082.06;6116826;23;20185;-75
2023/03/17 02:44:57;;;;;;;3.60;3.00;;;;;;;5.50;65.57;99073.31;6089637;23;20230;-76
2023/03/17 02:47:22;;;;;;;2.83;2.23;;;;;;;5.51;65.08;99075.03;6115012;23;20181;-76
2023/03/17 02:49:49;;;;;;;3.20;2.70;;;;;;;5.50;65.64;99078.53;6115872;23;20186;-77
2023/03/17 02:52:17;;;;;;;3.75;2.50;;;;;;;5.46;65.21;99071.81;6117789;23;20402;-77
2023/03/17 02:54:42;;;;;;;3.47;2.60;;;;;;;5.45;65.58;99079.69;6112426;23;20199;-76
2023/03/17 02:57:08;;;;;;;1.80;1.70;;;;;;;5.43;65.67;99076.34;6114959;23;20238;-76
2023/03/17 02:59:34;;;;;;;3.83;2.13;;;;;;;5.41;65.58;99081.63;6112791;23;20180;-77
2023/03/17 03:02:00;;;;;;;2.38;2.10;;;;;;;5.40;65.47;99079.09;6117767;23;20180;-77
2023/03/17 03:04:26;;;;;;;4.07;2.67;;;;;;;5.40;65.80;99076.47;6117518;23;20179;-77
2023/03/17 03:06:52;;;;;;;5.90;4.00;;;;;;;5.37;65.72;99072.25;6116102;23;20426;-76
2023/03/17 03:09:19;;;;;;;5.00;3.55;;;;;;;5.26;65.89;99065.00;6120734;23;20407;-76
2023/03/17 03:11:45;;;;;;;5.40;3.13;;;;;;;5.18;65.92;99063.69;6119142;23;20183;-76
2023/03/17 03:14:11;;;;;;;3.70;2.53;;;;;;;5.12;66.17;99061.41;6119842;23;20188;-78
2023/03/17 03:16:37;;;;;;;4.70;2.55;;;;;;;5.08;66.20;99064.19;6119482;23;20293;-77
2023/03/17 03:19:03;;;;;;;2.63;2.40;;;;;;;5.05;65.74;99064.34;6118699;23;20199;-76
2023/03/17 03:21:28;;;;;;;5.30;3.23;;;;;;;4.98;66.24;99057.75;6116239;23;20397;-77
2023/03/17 03:23:54;;;;;;;3.60;2.63;;;;;;;4.97;66.45;99058.66;6093065;23;20184;-78
2023/03/17 03:26:20;;;;;;;5.03;2.85;;;;;;;4.98;66.17;99055.13;6117743;23;20236;-77
2023/03/17 03:28:45;;;;;;;2.60;2.07;;;;;;;4.93;66.25;99045.88;6115119;23;20176;-75
2023/03/17 03:31:12;;;;;;;4.87;3.00;;;;;;;4.91;66.53;99051.13;6116420;23;20939;-76
2023/03/17 03:33:39;;;;;;;3.65;2.50;;;;;;;4.92;66.31;99052.84;6116053;23;20225;-75
2023/03/17 03:36:06;;;;;;;2.40;2.20;;;;;;;4.93;66.13;99051.06;6114434;23;20246;-75
2023/03/17 03:38:32;;;;;;;3.00;2.10;;;;;;;4.95;66.49;99055.28;6115986;23;20226;-76
2023/03/17 03:40:57;;;;;;;3.70;2.37;;;;;;;4.95;66.21;99055.28;6115406;23;20522;-76
2023/03/17 03:43:23;;;;;;;3.40;2.60;;;;;;;4.96;66.24;99059.56;6116203;23;20183;-77
2023/03/17 03:45:48;;;;;;;4.60;3.30;;;;;;;4.93;66.23;99062.31;6115091;23;20286;-75
2023/03/17 03:48:13;;;;;;;4.67;3.00;;;;;;;4.91;66.10;99060.72;6115283;23;20175;-76
2023/03/17 03:50:39;;;;;;;3.93;2.80;;;;;;;4.89;66.08;99068.63;6114320;23;20182;-76
2023/03/17 03:53:04;;;;;;;4.17;2.53;;;;;;;4.88;66.28;99067.75;6115770;23;20231;-76
2023/03/17 03:55:30;;;;;;;3.73;2.47;;;;;;;4.88;66.47;99069.50;6116390;23;20205;-76
2023/03/17 03:57:55;;;;;;;3.27;2.50;;;;;;;4.87;66.30;99073.03;6114848;23;20282;-76
2023/03/17 04:00:21;;;;;;;3.27;2.97;;;;;;;4.87;66.06;99076.47;6113829;23;20176;-77
2023/03/17 04:02:47;;;;;;;3.10;2.75;;;;;;;4.87;66.38;99076.47;6115547;23;20174;-76
2023/03/17 04:05:15;;;;;;;3.40;2.60;;;;;;;4.87;66.53;99073.03;6117436;23;20485;-76
2023/03/17 04:07:41;;;;;;;8.10;3.92;;;;;;;4.80;66.43;99071.66;6121397;23;20241;-76
2023/03/17 04:10:08;;;;;;;5.97;3.20;;;;;;;4.72;66.54;99065.97;6117349;23;20159;-78
2023/03/17 04:12:34;;;;;;;3.63;2.65;;;;;;;4.65;66.76;99070.63;6117572;23;20258;-76
2023/03/17 04:15:00;;;;;;;3.77;2.90;;;;;;;4.61;67.04;99064.72;6083653;23;20252;-77
2023/03/17 04:17:26;;;;;;;2.75;2.53;;;;;;;4.56;66.84;99069.31;6089905;23;20218;-79
2023/03/17 04:19:51;;;;;;;4.37;2.77;;;;;;;4.54;67.12;99065.13;6086704;23;20162;-78
2023/03/17 04:22:16;;;;;;;2.43;2.23;;;;;;;4.49;66.89;99064.50;6089150;23;20253;-79
2023/03/17 04:24:42;;;;;;;2.47;2.10;;;;;;;4.41;67.12;99065.69;6088683;23;20170;-78
2023/03/17 04:27:08;;;;;;;1.90;1.77;;;;;;;4.39;66.97;99064.06;6089017;23;20245;-78
2023/03/17 04:29:33;;;;;;;2.10;1.93;;;;;;;4.34;67.07;99066.03;6088322;23;20654;-77
2023/03/17 04:32:00;;;;;;;3.10;2.13;;;;;;;4.31;67.26;99066.19;6088652;23;20415;-77
2023/03/17 04:34:26;;;;;;;3.10;2.30;;;;;;;4.30;67.12;99059.31;6088593;23;20476;-77
2023/03/17 04:36:52;;;;;;;2.85;2.17;;;;;;;4.30;67.20;99061.91;6088711;23;20200;-77
2023/03/17 04:39:17;;;;;;;2.37;2.13;;;;;;;4.26;67.13;99061.19;6087815;23;20267;-78
2023/03/17 04:41:43;;;;;;;3.70;2.27;;;;;;;4.22;67.13;99059.66;6088720;23;20438;-79
2023/03/17 04:44:08;;;;;;;3.10;2.80;;;;;;;4.17;67.20;99062.47;6089291;23;20516;-80
2023/03/17 04:46:34;;;;;;;4.77;3.47;;;;;;;4.13;67.32;99058.34;6087072;23;20295;-77
2023/03/17 04:49:00;;;;;;;4.10;3.38;;;;;;;4.10;67.48;99062.81;6087327;23;20291;-78
2023/03/17 04:51:26;;;;;;;4.13;2.60;;;;;;;4.10;67.32;99066.25;6088589;23;20206;-77
2023/03/17 04:53:51;;;;;;;3.67;2.70;;;;;;;4.10;67.22;99063.66;6088353;23;20192;-77
2023/03/17 04:56:17;;;;;;;3.60;2.60;;;;;;;4.11;67.38;99070.56;6088951;23;20197;-77
2023/03/17 04:58:43;;;;;;;3.97;2.90;;;;;;;4.13;67.11;99065.28;6085339;23;20606;-77
2023/03/17 05:01:09;;;;;;;4.70;2.80;;;;;;;4.12;67.05;99067.03;6087701;23;20404;-77
2023/03/17 05:03:35;;;;;;;3.55;1.98;;;;;;;4.12;67.20;99068.78;6087879;23;20435;-78
2023/03/17 05:06:02;;;;;;;3.73;2.60;;;;;;;4.08;67.05;99072.44;6087964;23;20654;-78
2023/03/17 05:08:28;;;;;;;4.40;2.85;;;;;;;4.03;67.26;99064.88;6088447;23;20176;-78
2023/03/17 05:10:57;;;;;;;2.87;2.30;;;;;;;4.02;67.15;99073.56;6088049;23;20255;-77
2023/03/17 05:13:23;;;;;;;4.05;3.53;;;;;;;4.02;67.44;99064.91;6089449;23;20448;-79
2023/03/17 05:15:51;;;;;;;8.45;3.65;;;;;;;4.00;67.50;99067.59;6087210;23;20699;-78
2023/03/17 05:18:19;;;;;;;4.97;3.83;;;;;;;3.97;67.26;99060.78;6087371;23;20733;-79
2023/03/17 05:20:45;;;;;;;7.03;3.67;;;;;;;3.93;67.43;99061.81;6087750;23;20331;-77
2023/03/17 05:23:11;;;;;;;11.43;4.27;;;;;;;3.92;67.55;99057.56;6088845;23;20208;-78
2023/03/17 05:25:38;;;;;;;5.20;3.25;;;;;;;3.88;67.38;99068.97;6087375;23;20491;-78
2023/03/17 05:28:05;;;;;;;3.58;3.28;;;;;;;3.87;67.56;99061.28;6087515;23;20191;-77
2023/03/17 05:30:31;;;;;;;2.67;2.47;;;;;;;3.87;67.79;99063.88;6087418;23;20274;-77
2023/03/17 05:32:57;;;;;;;3.03;2.72;;;;;;;3.89;67.60;99064.63;6087448;23;20418;-79
2023/03/17 05:35:23;;;;;;;2.58;2.30;;;;;;;3.91;67.65;99073.19;6087097;23;20207;-78
2023/03/17 05:37:49;;;;;;;3.33;3.07;;;;;;;3.92;67.68;99069.72;6086207;23;20184;-80
2023/03/17 05:40:14;;;;;;;6.10;2.80;;;;;;;3.93;67.57;99074.81;6087834;23;20428;-76
2023/03/17 05:42:43;;;;;;;3.08;2.50;;;;;;;3.94;67.35;99075.66;6089454;23;20521;-77
2023/03/17 05:45:09;;;;;;;2.13;1.80;;;;;;;3.96;67.40;99079.03;6088962;23;20229;-76
2023/03/17 05:47:35;;;;;;;3.53;2.87;;;;;;;3.93;67.59;99079.19;6087648;23;20167;-77
2023/03/17 05:50:01;;;;;;;4.60;2.50;;;;;;;3.91;67.37;99065.41;6085984;23;20873;-77
2023/03/17 05:52:27;;;;;;;4.75;3.50;;;;;;;3.91;67.78;99065.41;6078807;23;20499;-76
2023/03/17 05:54:54;;;;;;;5.32;3.50;;;;;;;3.93;67.51;99064.44;6080511;23;20291;-78
2023/03/17 05:57:20;;;;;;;4.90;2.40;;;;;;;3.98;67.39;99061.63;6081597;23;20667;-77
2023/03/17 05:59:46;;;;;;;5.35;3.28;;;;;;;3.99;67.41;99060.69;6081225;23;20259;-77
2023/03/17 06:02:12;;;;;;;4.10;2.95;;;;;;;4.03;67.33;99075.25;6081384;23;20251;-77
2023/03/17 06:04:38;;;;;;;5.90;3.90;;;;;;;4.09;67.47;99068.94;6081517;23;20543;-77
2023/03/17 06:07:04;;;;;;;4.40;4.00;;;;;;;4.13;67.50;99081.72;6082057;23;20179;-77
2023/03/17 06:09:31;;;;;;;6.30;3.70;;;;;;;4.17;67.35;99080.66;6080961;23;20408;-77
2023/03/17 06:11:56;;;;;;;5.25;3.85;;;;;;;4.22;67.26;99086.50;6082093;23;20203;-77
2023/03/17 06:14:22;;;;;;;6.30;4.03;;;;;;;4.28;67.24;99084.53;6078822;23;20176;-77
2023/03/17 06:16:47;;;;;;;4.73;3.17;;;;;;;4.33;67.06;99083.41;6082271;23;20208;-76
2023/03/17 06:19:13;;;;;;;4.07;3.60;;;;;;;4.41;66.88;99091.69;6077036;23;20207;-77
2023/03/17 06:21:38;;;;;;;5.30;3.80;;;;;;;4.51;66.62;99092.09;6075999;23;20658;-75
2023/03/17 06:24:04;;;;;;;6.43;3.70;;;;;;;4.58;66.23;99093.47;6077932;23;20279;-77
2023/03/17 06:26:29;;;;;;;5.87;4.27;;;;;;;4.66;66.46;99101.75;6078490;23;20196;-77
2023/03/17 06:28:55;;;;;;;7.60;4.93;;;;;;;4.72;66.22;99092.81;6073447;23;20508;-77
2023/03/17 06:31:21;;;;;;;12.53;9.03;;;;;;;4.79;65.99;99098.59;6077354;23;20546;-77
2023/03/17 06:33:46;;;;;;;8.10;7.30;;;;;;;4.87;65.94;99099.06;6076617;23;20251;-77
2023/03/17 06:36:12;;;;;;;8.53;4.70;;;;;;;4.95;65.80;99096.94;6078568;23;20231;-76
2023/03/17 06:38:38;;;;;;;9.50;5.40;;;;;;;5.00;65.91;99102.75;6073833;23;20440;-77
2023/03/17 06:41:04;;;;;;;6.35;5.05;;;;;;;5.06;65.71;99099.00;6081911;23;20227;-77
2023/03/17 06:43:30;;;;;;;7.67;5.33;;;;;;;5.17;65.52;99090.66;6080339;23;20279;-77
2023/03/17 06:45:56;;;;;;;6.00;5.20;;;;;;;5.22;65.69;99093.88;6085124;23;20251;-77
2023/03/17 06:48:22;;;;;;;4.60;3.30;;;;;;;5.28;65.11;99097.00;6084428;23;20516;-77
2023/03/17 06:50:49;;;;;;;6.80;4.43;;;;;;;5.39;65.26;99090.44;6083994;23;20191;-78
2023/03/17 06:53:15;;;;;;;6.63;4.72;;;;;;;5.49;65.06;99096.88;6086812;23;20227;-78
2023/03/17 06:55:40;;;;;;;7.18;3.97;;;;;;;5.61;64.61;99103.19;6086117;23;20192;-77
2023/03/17 06:58:08;;;;;;;4.40;3.40;;;;;;;5.74;64.38;99099.88;6086439;23;20688;-77
2023/03/17 07:00:33;;;;;;;3.53;3.15;;;;;;;5.89;63.83;99105.22;6082874;23;20899;-77
2023/03/17 07:02:59;;;;;;;4.57;4.23;;;;;;;6.03;63.92;99097.56;6060774;23;20215;-78
2023/03/17 07:05:24;;;;;;;4.93;4.20;;;;;;;6.17;63.83;99100.25;6084425;23;20439;-78
2023/03/17 07:07:49;;;;;;;4.80;3.07;;;;;;;6.31;63.44;99103.88;6086665;23;20501;-78
2023/03/17 07:10:16;;;;;;;3.23;2.93;;;;;;;6.43;63.30;99100.63;6085121;23;20199;-77
2023/03/17 07:12:41;;;;;;;3.30;3.00;;;;;;;6.57;63.04;99100.69;6086318;23;20283;-77
2023/03/17 07:15:08;;;;;;;3.23;2.53;;;;;;;6.68;62.68;99094.88;6085816;23;20227;-77
2023/03/17 07:17:34;;;;;;;4.68;2.88;;;;;;;6.80;62.25;99103.78;6060256;23;20203;-77
2023/03/17 07:19:59;;;;;;;3.20;2.90;;;;;;;6.93;62.23;99096.09;6084235;23;20572;-80
2023/03/17 07:22:25;;;;;;;3.77;2.53;;;;;;;7.05;61.73;99093.66;6086360;23;20204;-79
2023/03/17 07:24:51;;;;;;;3.63;3.20;;;;;;;7.17;61.43;99101.69;6085437;23;20207;-78
2023/03/17 07:27:17;;;;;;;5.35;3.10;;;;;;;7.28;61.36;99096.69;6085564;23;20239;-78
2023/03/17 07:29:42;;;;;;;9.07;3.00;;;;;;;7.39;60.91;99102.13;6084454;23;20562;-77
2023/03/17 07:32:09;;;;;;;3.17;2.87;;;;;;;7.50;60.59;99099.72;6039051;23;20757;-79
2023/03/17 07:34:35;;;;;;;3.05;2.75;;;;;;;7.62;60.25;99099.94;6128929;23;20583;-77
2023/03/17 07:37:04;;;;;;;5.45;4.40;;;;;;;7.71;60.19;99094.97;6112170;23;20186;-75
2023/03/17 07:39:30;;;;;;;4.53;4.00;;;;;;;7.80;59.96;99095.34;6104103;23;20680;-76
2023/03/17 07:41:55;;;;;;;4.25;3.85;;;;;;;7.89;59.82;99089.59;6104446;23;20218;-79
2023/03/17 07:44:22;;;;;;;4.60;3.80;;;;;;;7.98;59.64;99079.38;6106241;23;20770;-77
2023/03/17 07:46:48;;;;;;;7.93;4.72;;;;;;;8.10;59.40;99088.28;6107679;23;20663;-77
2023/03/17 07:49:13;;;;;;;7.82;5.32;;;;;;;8.18;59.27;99090.41;6109759;23;20629;-80
2023/03/17 07:51:41;;;;;;;10.80;5.70;;;;;;;8.24;59.20;99086.59;6111778;23;20193;-77
2023/03/17 07:54:08;;;;;;;7.55;5.22;;;;;;;8.32;59.04;99079.09;6109691;23;20180;-78
2023/03/17 07:56:34;;;;;;;5.85;4.15;;;;;;;8.39;58.79;99083.84;6109321;23;20275;-80
2023/03/17 07:59:00;;;;;;;4.70;4.07;;;;;;;8.49;58.61;99089.34;6110459;23;20701;-80
2023/03/17 08:01:27;;;;;;;9.93;5.67;;;;;;;8.59;58.41;99076.53;6110981;23;20563;-79
2023/03/17 08:03:54;;;;;;;9.32;5.90;;;;;;;8.69;58.05;99074.97;6108832;23;20403;-79
2023/03/17 08:06:20;;;;;;;5.85;4.10;;;;;;;8.93;57.77;99071.72;6110680;23;20195;-77
2023/03/17 08:08:46;;;;;;;5.85;4.07;;;;;;;9.45;56.79;99068.25;6110384;23;20165;-79
2023/03/17 08:11:12;;;;;;;7.93;4.53;;;;;;;10.25;55.18;99063.56;6110215;23;20185;-80
2023/03/17 08:13:37;;;;;;;4.43;3.93;;;;;;;11.24;52.95;99052.84;6105466;23;20156;-78
2023/03/17 08:16:03;;;;;;;5.73;4.23;;;;;;;12.26;50.71;99047.69;6126474;23;20453;-81
2023/03/17 08:18:29;;;;;;;10.60;5.23;;;;;;;13.31;48.58;99048.75;6141245;23;20193;-77
2023/03/17 08:20:54;;;;;;;5.40;4.43;;;;;;;14.23;46.72;99042.69;6138847;23;20746;-78
2023/03/17 08:23:20;;;;;;;5.50;4.03;;;;;;;14.88;44.71;99040.44;6140111;23;20182;-80
2023/03/17 08:25:46;;;;;;;6.10;4.80;;;;;;;15.35;42.79;99037.91;6137770;23;20417;-78
2023/03/17 08:28:13;;;;;;;9.38;4.53;;;;;;;15.37;42.53;99031.50;6139052;23;20394;-77
2023/03/17 08:30:38;;;;;;;6.25;4.43;;;;;;;15.45;42.20;99028.16;6139287;23;20191;-81
2023/03/17 08:33:04;;;;;;;6.33;5.43;;;;;;;15.82;40.50;99030.00;6138907;23;20741;-79
2023/03/17 08:35:29;;;;;;;14.77;9.50;;;;;;;16.29;39.63;99036.06;6139084;23;20195;-78
2023/03/17 08:37:55;;;;;;;15.70;8.83;;;;;;;16.84;38.65;99029.88;6137955;23;20626;-81
2023/03/17 08:40:21;;;;;;;13.83;10.57;;;;;;;17.39;37.64;99026.16;6137977;23;20671;-80
2023/03/17 08:42:48;;;;;;;10.52;7.20;;;;;;;17.68;37.06;99039.94;6139062;23;20160;-78
2023/03/17 08:45:14;;;;;;;8.90;5.57;;;;;;;17.86;36.83;99026.66;6140311;23;20665;-78
2023/03/17 08:47:39;;;;;;;4.85;4.43;;;;;;;18.10;36.34;99025.09;6139080;23;20176;-79
2023/03/17 08:50:12;;;;;;;5.43;4.90;;;;;;;18.35;35.80;99013.53;6137343;23;20479;-78
2023/03/17 08:52:38;;;;;;;5.35;3.85;;;;;;;18.54;34.90;99019.56;6139243;23;20163;-81
2023/03/17 08:55:04;;;;;;;4.63;4.13;;;;;;;18.28;34.99;99014.34;6139646;23;20200;-78
2023/03/17 08:57:29;;;;;;;5.50;4.80;;;;;;;17.96;35.85;99018.56;6138080;23;20937;-77
2023/03/17 08:59:55;;;;;;;7.57;5.60;;;;;;;17.64;36.38;99017.38;6138357;23;20166;-78
2023/03/17 09:02:20;;;;;;;5.20;4.70;;;;;;;17.48;36.91;99020.75;6137222;23;20182;-78
2023/03/17 09:04:45;;;;;;;8.53;4.93;;;;;;;17.48;37.16;99018.09;6134759;23;20404;-80
2023/03/17 09:07:12;;;;;;;5.60;4.53;;;;;;;17.43;37.31;99015.06;6139236;23;20152;-80
2023/03/17 09:09:38;;;;;;;6.20;4.68;;;;;;;17.26;37.50;99005.34;6139346;23;20152;-79
2023/03/17 09:12:05;;;;;;;9.88;5.30;;;;;;;17.06;37.93;99009.16;6139160;23;20238;-78
2023/03/17 09:14:32;;;;;;;5.57;4.57;;;;;;;17.00;38.03;99013.25;6137800;23;20521;-77
2023/03/17 09:16:58;;;;;;;5.15;4.03;;;;;;;17.04;37.92;99006.69;6138859;23;20199;-79
2023/03/17 09:19:24;;;;;;;5.10;4.60;;;;;;;16.93;37.99;99010.41;6139984;23;20217;-79
2023/03/17 09:21:50;;;;;;;6.27;5.10;;;;;;;16.85;38.19;98997.06;6138283;23;20274;-77
2023/03/17 09:24:16;;;;;;;6.05;4.05;;;;;;;16.71;38.23;99000.22;6139485;23;20164;-80
2023/03/17 09:26:42;;;;;;;6.70;4.72;;;;;;;16.65;38.40;99003.47;6138413;23;20249;-75
2023/03/17 09:29:07;;;;;;;5.10;4.10;;;;;;;16.53;38.06;99009.00;6139218;23;20467;-76
2023/03/17 09:31:36;;;;;;;3.97;3.57;;;;;;;16.30;38.14;99005.09;6140285;23;20233;-74
2023/03/17 09:34:03;;;;;;;5.15;4.15;;;;;;;15.97;38.49;98996.78;6137877;23;20473;-74
2023/03/17 09:36:31;;;;;;;3.72;3.33;;;;;;;15.65;38.89;99003.28;6135828;23;20214;-74
2023/03/17 09:38:58;;;;;;;5.22;4.43;;;;;;;15.51;39.00;98992.34;6139122;23;20293;-78
2023/03/17 09:41:48;;;;;;;5.22;4.25;;;;;;;15.58;38.57;98988.97;6139015;23;20198;-76
2023/03/17 09:44:37;;;;;;;10.38;6.05;;;;;;;15.43;38.38;98983.28;6135241;23;20222;-78
2023/03/17 09:47:03;;;;;;;6.13;4.25;;;;;;;15.38;38.54;98987.34;6134785;23;20179;-78
2023/03/17 09:49:48;;;;;;;4.10;3.70;;;;;;;15.32;38.73;98986.13;6139827;23;20175;-75
2023/03/17 09:52:17;;;;;;;5.97;4.93;;;;;;;15.21;38.93;98981.81;6137547;23;20175;-78
2023/03/17 09:54:45;;;;;;;4.32;3.40;;;;;;;15.15;39.04;98971.81;6139117;23;20190;-76
2023/03/17 09:57:34;;;;;;;7.25;4.35;;;;;;;15.05;39.30;98974.47;6138435;23;20203;-75
2023/03/17 10:00:17;;;;;;;4.30;3.40;;;;;;;14.99;39.42;98980.34;6139432;23;20198;-75
2023/03/17 10:02:43;;;;;;;5.43;3.80;;;;;;;15.06;39.46;98983.22;6137910;23;20191;-77
2023/03/17 10:05:20;;;;;;;4.80;3.80;;;;;;;15.15;39.10;98979.75;6136219;23;20769;-74
2023/03/17 10:07:53;;;;;;;4.40;4.00;;;;;;;15.30;39.02;98988.06;6135050;23;20614;-77
2023/03/17 10:10:31;;;;;;;8.05;3.65;;;;;;;15.52;38.62;98986.88;6136461;23;20183;-77
2023/03/17 10:13:41;;;;;;;4.75;3.72;;;;;;;15.78;38.26;98978.34;6138589;23;20285;-76
2023/03/17 10:16:19;;;;;;;4.60;4.20;;;;;;;16.01;38.06;98976.94;6100232;23;20238;-77
2023/03/17 10:18:55;;;;;;;5.93;3.80;;;;;;;16.13;38.14;98980.25;6141715;23;20318;-79
2023/03/17 10:21:26;;;;;;;6.80;3.42;;;;;;;16.27;37.66;98971.78;6149567;23;20627;-78
2023/03/17 10:23:53;;;;;;;4.72;4.25;;;;;;;16.34;37.78;98972.03;6168994;23;20178;-80
2023/03/17 10:26:33;;;;;;;4.68;4.20;;;;;;;16.42;37.70;98964.16;6171195;23;20256;-79
2023/03/17 10:29:03;;;;;;;5.90;3.63;;;;;;;16.45;37.68;98957.72;6167788;23;20553;-79
2023/03/17 10:31:34;;;;;;;4.30;3.70;;;;;;;16.25;38.24;98962.31;6169740;23;20245;-78
2023/03/17 10:34:22;;;;;;;7.28;4.60;;;;;;;16.14;39.25;98960.72;6165972;23;20428;-78
2023/03/17 10:37:04;;;;;;;4.97;3.78;;;;;;;16.06;39.78;98953.50;6169094;23;20660;-78
2023/03/17 10:39:30;;;;;;;4.32;3.60;;;;;;;16.07;39.69;98946.41;6169981;23;20186;-78
2023/03/17 10:42:14;;;;;;;4.47;3.90;;;;;;;16.27;39.54;98947.09;6167737;23;20175;-78
2023/03/17 10:44:53;;;;;;;4.90;4.15;;;;;;;16.53;39.16;98937.41;6168962;23;20644;-79
2023/03/17 10:47:23;;;;;;;3.70;3.40;;;;;;;16.75;38.65;98945.91;6169470;23;20664;-78
2023/03/17 10:49:50;;;;;;;3.83;3.42;;;;;;;16.96;38.15;98933.16;6167656;23;20182;-79
2023/03/17 10:52:45;;;;;;;4.10;3.42;;;;;;;17.21;37.29;98931.50;6170507;23;20179;-79
2023/03/17 10:55:15;;;;;;;7.45;3.22;;;;;;;17.38;36.52;98926.28;6147987;23;20192;-79
2023/03/17 10:57:50;;;;;;;4.40;3.13;;;;;;;17.42;36.18;98928.47;6159844;23;20199;-79
2023/03/17 11:00:20;;;;;;;13.38;6.60;;;;;;;17.42;36.06;98924.97;6166814;23;20171;-79
2023/03/17 11:02:54;;;;;;;6.32;3.35;;;;;;;17.44;35.78;98921.19;6169588;23;20152;-79
2023/03/17 11:05:26;;;;;;;4.90;2.70;;;;;;;17.48;35.77;98914.56;6169622;23;20160;-78
2023/03/17 11:08:14;;;;;;;4.88;3.08;;;;;;;17.42;35.66;98915.19;6169148;23;20179;-78
2023/03/17 11:10:40;;;;;;;3.75;3.08;;;;;;;17.40;35.87;98906.53;6168501;23;20166;-79
2023/03/17 11:13:07;;;;;;;5.10;3.63;;;;;;;17.47;35.75;98910.25;6166053;23;20200;-79
2023/03/17 11:15:36;;;;;;;5.10;3.50;;;;;;;17.56;35.89;98912.94;6165927;23;20152;-79
2023/03/17 11:18:10;;;;;;;5.57;3.88;;;;;;;17.63;35.46;98905.97;6164996;23;20200;-80
2023/03/17 11:20:46;;;;;;;3.10;2.80;;;;;;;17.65;34.90;98906.66;6168520;23;20247;-79
2023/03/17 11:23:46;;;;;;;4.22;2.33;;;;;;;17.59;34.73;98904.66;6167518;23;20390;-79
2023/03/17 11:26:32;;;;;;;3.05;1.98;;;;;;;17.65;34.37;98904.00;6169221;23;20164;-79
2023/03/17 11:29:19;;;;;;;4.67;2.90;;;;;;;17.71;33.64;98903.34;6167237;23;20309;-79
2023/03/17 11:31:54;;;;;;;2.83;2.30;;;;;;;17.84;33.43;98898.44;6167495;23;20420;-78
2023/03/17 11:34:48;;;;;;;2.90;2.55;;;;;;;17.98;32.72;98883.69;6168939;23;20407;-79
2023/03/17 11:37:26;;;;;;;3.20;2.03;;;;;;;18.04;32.52;98880.41;6169848;23;20591;-79
2023/03/17 11:40:06;;;;;;;2.50;1.80;;;;;;;18.10;32.57;98876.28;6167074;23;20504;-78
2023/03/17 11:42:53;;;;;;;4.47;2.13;;;;;;;18.18;32.20;98868.31;6170740;23;20391;-79
2023/03/17 11:45:27;;;;;;;2.03;1.53;;;;;;;18.23;31.63;98871.31;6168930;23;20449;-79